Djibouti-Ambouli Airport Djibouti City DJ
ICAO: HDAM
IATA: JIB
Category: Medium
Scheduled Services: Yes

Elevation: 49 ft
TransAlt. 3700 ft.

Airport Communications:
A/G VOICE RDO:759.5
APP:121.1
GND:118.1
TWR:122.1

HDAM Zoom In..

If you have problems with the map follow the link
https://www.worldairports.se/pages/airport.php?
ICAO=HDAM

Runways:

(A) RW 09 length 10335 ft width 148 ft
---- / hdg 90

(B) RW 27 length 10335 ft width 148 ft
ILS 110.30 / hdg 270

Location; HDAM
Day. 21 / Time. 10.00 Zulu
* QNH: 1014
* Temperature: 31° c. 87.8°f.
* Wind from: 080° Speed 10 kn.
Dewpoint: 24° c.
Visibility: 10 km or more.
Clouds: Few 2300 ft.

HDAM 211000Z 08010KT 9999 FEW023 31/24 Q1014


Wind From 080°
Speed 10 kn.

 
 
jpsmedia worldairports.se 2020   terms of use